Time;durP1;ratioP1;P1;durP2;ratioP2;P2;SDS_P1;SDS_P2;PMS_P1;PMS_P2;Temp;Humidity;BMP_temperature;BMP_pressure;BME280_temperature;BME280_humidity;BME280_pressure;Samples;Min_cycle;Max_cycle;Signal;HPM_P1;HPM_P2
2021/11/30 00:00:06;;;;;;;6.78;3.33;;;;;;;-0.14;81.69;95906.41;5127678;27;20051;-71
2021/11/30 00:02:32;;;;;;;6.28;3.33;;;;;;;-0.13;81.96;95908.81;5130623;27;20058;-72
2021/11/30 00:04:59;;;;;;;6.20;3.45;;;;;;;-0.13;81.71;95908.81;5131478;27;20054;-71
2021/11/30 00:07:26;;;;;;;8.75;3.80;;;;;;;-0.11;81.75;95916.56;5131591;27;20055;-72
2021/11/30 00:12:38;;;;;;;8.27;4.00;;;;;;;-0.06;81.30;95916.59;5125277;27;20050;-72
2021/11/30 00:15:05;;;;;;;9.73;3.67;;;;;;;-0.09;81.59;95920.63;5130502;27;20421;-71
2021/11/30 00:17:31;;;;;;;6.70;4.00;;;;;;;-0.09;81.70;95925.16;5132310;27;20073;-72
2021/11/30 00:19:58;;;;;;;9.13;3.70;;;;;;;-0.10;81.73;95920.88;5131269;27;20050;-73
2021/11/30 00:22:25;;;;;;;7.47;3.63;;;;;;;-0.09;81.68;95925.16;5131163;27;20391;-72
2021/11/30 00:24:53;;;;;;;9.85;4.35;;;;;;;-0.12;81.67;95910.41;5131552;27;20055;-72
2021/11/30 00:27:20;;;;;;;7.30;3.92;;;;;;;-0.09;81.65;95925.16;5131768;27;20051;-71
2021/11/30 00:29:47;;;;;;;9.75;4.38;;;;;;;-0.08;81.94;95929.44;5132189;27;20054;-72
2021/11/30 00:32:14;;;;;;;9.43;4.95;;;;;;;-0.13;82.05;95930.22;5130684;27;20047;-72
2021/11/30 00:34:41;;;;;;;6.53;4.03;;;;;;;-0.11;82.09;95933.44;5132217;27;20066;-71
2021/11/30 00:37:07;;;;;;;10.07;5.18;;;;;;;-0.08;81.86;95937.47;5130516;27;20054;-71
2021/11/30 00:39:34;;;;;;;7.72;4.60;;;;;;;-0.09;81.80;95942.03;5131788;27;20058;-71
2021/11/30 00:42:02;;;;;;;10.60;5.78;;;;;;;-0.08;82.00;95950.84;5131078;27;20051;-73
2021/11/30 00:44:31;;;;;;;9.48;4.53;;;;;;;-0.04;81.82;95951.97;5119020;27;20092;-72
2021/11/30 00:46:59;;;;;;;10.80;5.07;;;;;;;-0.05;82.06;95963.75;5111224;28;20051;-72
2021/11/30 00:49:27;;;;;;;7.82;4.65;;;;;;;-0.05;82.07;95969.09;5110079;28;20063;-72
2021/11/30 00:51:55;;;;;;;8.90;4.82;;;;;;;-0.04;82.07;95971.50;5110812;28;20063;-72
2021/11/30 00:54:23;;;;;;;8.43;4.43;;;;;;;-0.02;81.96;95973.91;5109785;28;20063;-72
2021/11/30 00:56:51;;;;;;;8.07;4.38;;;;;;;0.02;81.88;95972.31;5111188;28;20410;-72
2021/11/30 00:59:18;;;;;;;8.73;4.22;;;;;;;0.07;81.61;95984.94;5109777;28;20048;-73
2021/11/30 01:01:45;;;;;;;7.20;4.05;;;;;;;0.02;81.32;95979.56;5110924;28;20391;-72
2021/11/30 01:04:13;;;;;;;8.48;5.03;;;;;;;0.04;81.31;95978.22;5109354;28;20706;-73
2021/11/30 01:06:40;;;;;;;8.18;4.22;;;;;;;0.04;81.19;95982.75;5110881;28;20063;-72
2021/11/30 01:09:09;;;;;;;8.63;4.53;;;;;;;0.03;81.53;95990.00;5109574;28;20533;-72
2021/11/30 01:11:37;;;;;;;7.97;4.68;;;;;;;0.00;81.78;95987.84;5109719;28;20054;-72
2021/11/30 01:14:03;;;;;;;8.15;4.53;;;;;;;0.01;81.70;95988.66;5109606;28;20047;-71
2021/11/30 01:16:30;;;;;;;7.85;4.30;;;;;;;-0.02;81.46;95984.63;5109560;28;20063;-72
2021/11/30 01:18:56;;;;;;;7.57;4.70;;;;;;;-0.06;82.69;95994.22;5110536;28;20051;-72
2021/11/30 01:21:24;;;;;;;8.93;4.28;;;;;;;-0.15;83.86;95985.88;5109916;28;20048;-71
2021/11/30 01:23:51;;;;;;;7.88;4.68;;;;;;;-0.18;84.35;95997.09;5110715;28;20051;-72
2021/11/30 01:26:17;;;;;;;7.03;4.22;;;;;;;-0.24;84.50;95991.97;5108996;28;20048;-72
2021/11/30 01:28:44;;;;;;;8.40;4.60;;;;;;;-0.25;84.85;96007.22;5110465;28;20055;-72
2021/11/30 01:31:12;;;;;;;9.15;4.55;;;;;;;-0.23;84.84;96004.28;5109024;28;20052;-74
2021/11/30 01:33:38;;;;;;;8.38;4.22;;;;;;;-0.19;84.71;96005.41;5110173;28;20051;-74
2021/11/30 01:36:06;;;;;;;7.55;4.82;;;;;;;-0.20;84.48;95998.44;5109333;28;20055;-71
2021/11/30 01:38:35;;;;;;;6.47;3.78;;;;;;;-0.17;84.24;96003.25;5109533;28;20044;-73
2021/11/30 01:41:04;;;;;;;7.72;4.32;;;;;;;-0.17;83.88;96003.25;5109858;28;20419;-69
2021/11/30 01:43:38;;;;;;;8.35;4.40;;;;;;;-0.17;83.70;96008.59;5108862;28;20048;-73
2021/11/30 01:46:08;;;;;;;6.88;3.90;;;;;;;-0.17;83.55;95998.72;5109859;28;20403;-71
2021/11/30 01:51:19;;;;;;;7.43;4.28;;;;;;;-0.11;84.10;96012.94;5109351;28;20054;-72
2021/11/30 01:53:47;;;;;;;6.40;3.72;;;;;;;-0.15;84.07;96006.50;5109462;28;20054;-72
2021/11/30 01:56:14;;;;;;;7.10;4.30;;;;;;;-0.19;84.30;96005.41;5108989;28;20051;-72
2021/11/30 01:58:41;;;;;;;8.73;3.85;;;;;;;-0.17;84.82;96009.41;5109715;28;20043;-72
2021/11/30 02:01:07;;;;;;;6.43;3.78;;;;;;;-0.17;85.08;96008.59;5108990;28;20054;-72
2021/11/30 02:03:34;;;;;;;10.57;4.50;;;;;;;-0.19;85.19;96008.06;5109929;28;20055;-72
2021/11/30 02:06:01;;;;;;;5.93;3.60;;;;;;;-0.16;85.15;95999.50;5108496;28;20180;-72
2021/11/30 02:08:27;;;;;;;6.45;4.10;;;;;;;-0.17;85.10;96003.25;5129985;27;20047;-72
2021/11/30 02:10:56;;;;;;;7.20;3.83;;;;;;;-0.17;84.70;96003.25;5129089;27;20062;-72
2021/11/30 02:13:23;;;;;;;6.90;3.88;;;;;;;-0.17;84.36;96000.56;5128907;27;20071;-72
2021/11/30 02:15:53;;;;;;;10.10;3.72;;;;;;;-0.15;84.49;95996.59;5129310;27;20074;-72
2021/11/30 02:18:23;;;;;;;7.05;3.80;;;;;;;-0.13;84.09;95985.63;5128976;27;20092;-71
2021/11/30 02:20:53;;;;;;;7.47;3.53;;;;;;;-0.09;84.21;95984.06;5129920;27;20145;-72
2021/11/30 02:23:38;;;;;;;8.88;3.88;;;;;;;-0.09;83.56;95986.72;5127665;27;20055;-71
2021/11/30 02:26:09;;;;;;;6.97;3.38;;;;;;;-0.05;83.25;95979.78;5129591;27;20047;-71
2021/11/30 02:28:36;;;;;;;5.72;3.38;;;;;;;-0.04;83.07;95976.03;5128981;27;20061;-71
2021/11/30 02:31:02;;;;;;;5.95;3.20;;;;;;;-0.04;82.89;95986.75;5129092;27;20047;-71
2021/11/30 02:33:29;;;;;;;5.28;3.45;;;;;;;-0.02;82.93;95989.97;5128837;27;20042;-72
2021/11/30 02:35:57;;;;;;;6.10;3.20;;;;;;;-0.03;82.73;95988.34;5129428;27;20050;-72
2021/11/30 02:38:24;;;;;;;7.10;3.75;;;;;;;0.00;82.73;95977.16;5128666;27;20493;-72
2021/11/30 02:40:50;;;;;;;4.93;3.20;;;;;;;-0.04;82.63;95987.56;5122777;27;20047;-72
2021/11/30 02:43:17;;;;;;;6.50;3.17;;;;;;;0.01;82.69;95984.09;5099506;28;20044;-73
2021/11/30 02:45:44;;;;;;;4.72;3.05;;;;;;;0.02;82.75;95980.34;5102096;28;20055;-72
2021/11/30 02:48:10;;;;;;;5.25;2.95;;;;;;;0.02;82.93;95975.00;5108859;28;20051;-71
2021/11/30 02:50:41;;;;;;;5.40;3.13;;;;;;;0.04;82.92;95972.84;5108164;28;20391;-72
2021/11/30 02:53:15;;;;;;;7.35;3.15;;;;;;;0.09;82.76;95975.56;5108594;28;20563;-71
2021/11/30 02:55:42;;;;;;;5.00;2.88;;;;;;;0.14;82.54;95977.47;5108216;28;20101;-72
2021/11/30 02:58:08;;;;;;;5.43;2.90;;;;;;;0.12;82.16;95980.41;5107985;28;20052;-71
2021/11/30 03:00:35;;;;;;;6.28;2.47;;;;;;;0.12;82.10;95974.25;5108104;28;20051;-72
2021/11/30 03:03:01;;;;;;;6.75;3.05;;;;;;;0.10;82.57;95985.19;5107837;28;20043;-72
2021/11/30 03:05:28;;;;;;;4.20;2.78;;;;;;;0.10;82.45;95981.72;5108717;28;20047;-73
2021/11/30 03:07:54;;;;;;;4.57;2.95;;;;;;;0.07;82.60;95983.06;5107641;28;20051;-73
2021/11/30 03:10:22;;;;;;;6.30;3.00;;;;;;;0.08;83.22;95983.88;5108164;28;20052;-73
2021/11/30 03:12:51;;;;;;;5.65;3.20;;;;;;;0.07;83.28;95983.06;5107501;28;20044;-72
2021/11/30 03:15:20;;;;;;;4.78;2.70;;;;;;;0.06;83.21;95989.50;5116029;27;20055;-72
2021/11/30 03:17:48;;;;;;;3.80;2.60;;;;;;;0.03;83.79;95991.88;5107554;28;20047;-72
2021/11/30 03:20:17;;;;;;;5.53;2.83;;;;;;;0.04;84.00;95994.28;5107682;28;20066;-72
2021/11/30 03:22:46;;;;;;;4.93;2.95;;;;;;;0.01;84.08;95984.09;5107770;28;20059;-72
2021/11/30 03:25:14;;;;;;;5.57;2.60;;;;;;;0.01;84.35;95977.94;5107193;28;20643;-72
2021/11/30 03:27:42;;;;;;;4.28;2.60;;;;;;;0.02;84.22;95985.72;5108048;28;20600;-72
2021/11/30 03:30:11;;;;;;;4.40;3.00;;;;;;;0.02;84.41;95980.34;5106880;28;20070;-71
2021/11/30 03:35:23;;;;;;;5.38;2.60;;;;;;;0.01;84.20;95984.09;5106748;28;20505;-73
2021/11/30 03:37:50;;;;;;;5.07;2.83;;;;;;;0.02;84.10;95988.38;5108030;28;20051;-74
2021/11/30 03:40:17;;;;;;;5.10;3.05;;;;;;;0.06;84.08;95989.50;5102381;28;20074;-74
2021/11/30 03:42:45;;;;;;;4.30;3.03;;;;;;;0.11;83.72;95992.19;5107739;28;20255;-74
2021/11/30 03:45:13;;;;;;;6.80;2.72;;;;;;;0.11;83.46;95984.16;5107331;28;20047;-73
2021/11/30 03:47:40;;;;;;;4.90;2.75;;;;;;;0.12;83.51;95990.31;5107338;28;20164;-74
2021/11/30 03:50:07;;;;;;;4.18;2.88;;;;;;;0.12;83.42;95999.16;5107641;28;20047;-74
2021/11/30 03:52:34;;;;;;;5.53;2.90;;;;;;;0.14;83.40;95994.31;5108084;28;20145;-74
2021/11/30 03:55:00;;;;;;;4.85;3.03;;;;;;;0.14;83.27;95994.31;5108496;28;20050;-74
2021/11/30 03:57:27;;;;;;;3.88;2.60;;;;;;;0.14;83.39;95999.69;5119147;28;20385;-74
2021/11/30 03:59:54;;;;;;;4.75;3.03;;;;;;;0.15;83.51;96001.28;5112684;28;20044;-74
2021/11/30 04:02:21;;;;;;;5.60;2.58;;;;;;;0.19;83.29;95993.56;5106648;28;20051;-73
2021/11/30 04:04:47;;;;;;;5.28;2.80;;;;;;;0.19;82.98;96006.94;5107748;28;20044;-74
2021/11/30 04:07:15;;;;;;;4.93;2.97;;;;;;;0.16;83.00;96002.94;5107052;28;20054;-73
2021/11/30 04:09:42;;;;;;;4.85;2.60;;;;;;;0.15;82.81;96009.31;5105040;28;20147;-75
2021/11/30 04:12:09;;;;;;;6.32;2.72;;;;;;;0.18;82.65;96000.78;5107285;28;20043;-73
2021/11/30 04:14:35;;;;;;;6.35;3.05;;;;;;;0.15;82.55;95995.94;5106907;28;20048;-74
2021/11/30 04:17:06;;;;;;;3.58;2.53;;;;;;;0.15;82.06;96006.66;5107642;28;20052;-72
2021/11/30 04:19:32;;;;;;;4.03;2.63;;;;;;;0.19;82.66;96002.38;5106943;28;20498;-74
2021/11/30 04:21:59;;;;;;;4.53;2.58;;;;;;;0.20;82.84;96004.00;5107835;28;20054;-74
2021/11/30 04:24:25;;;;;;;6.70;2.70;;;;;;;0.17;83.01;96001.84;5106261;28;20059;-74
2021/11/30 04:26:52;;;;;;;9.02;2.50;;;;;;;0.18;82.34;95994.63;5107494;28;20047;-74
2021/11/30 04:29:18;;;;;;;4.40;2.55;;;;;;;0.23;81.77;96002.69;5106540;28;20410;-73
2021/11/30 04:31:45;;;;;;;4.22;2.40;;;;;;;0.24;81.13;95999.72;5107235;28;20062;-74
2021/11/30 04:34:16;;;;;;;4.60;2.30;;;;;;;0.28;80.84;96010.75;5106960;28;20068;-74
2021/11/30 04:36:42;;;;;;;5.95;2.78;;;;;;;0.31;81.25;95998.69;5106814;28;20047;-74
2021/11/30 04:39:09;;;;;;;4.38;2.17;;;;;;;0.31;80.49;96004.03;5106779;28;20063;-74
2021/11/30 04:41:36;;;;;;;4.88;2.45;;;;;;;0.30;80.94;96007.78;5106313;28;20055;-73
2021/11/30 04:44:05;;;;;;;5.18;2.22;;;;;;;0.29;81.45;96001.63;5107087;28;20055;-73
2021/11/30 04:46:41;;;;;;;5.50;3.00;;;;;;;0.25;81.97;96005.91;5107302;28;20051;-73
2021/11/30 04:49:13;;;;;;;5.80;2.20;;;;;;;0.19;82.32;96013.09;5110257;28;20069;-74
2021/11/30 04:51:41;;;;;;;3.60;2.47;;;;;;;0.15;82.14;96009.31;5110827;28;20063;-74
2021/11/30 04:54:07;;;;;;;4.45;2.72;;;;;;;0.13;82.34;96008.78;5109849;28;20069;-73
2021/11/30 04:56:34;;;;;;;4.13;2.40;;;;;;;0.13;82.24;96011.47;5110991;28;20051;-74
2021/11/30 04:59:00;;;;;;;5.40;2.40;;;;;;;0.13;82.19;95998.06;5110001;28;20513;-74
2021/11/30 05:01:27;;;;;;;4.65;2.60;;;;;;;0.18;81.74;96005.34;5131475;27;20053;-74
2021/11/30 05:03:53;;;;;;;4.75;2.60;;;;;;;0.22;81.05;96001.88;5130419;27;20054;-73
2021/11/30 05:06:20;;;;;;;3.45;2.28;;;;;;;0.26;81.06;96002.13;5131267;27;20047;-73
2021/11/30 05:08:48;;;;;;;5.05;2.45;;;;;;;0.27;80.10;96002.97;5130232;27;20382;-74
2021/11/30 05:11:14;;;;;;;3.13;1.95;;;;;;;0.30;80.01;96013.94;5130553;27;20051;-75
2021/11/30 05:13:41;;;;;;;4.75;2.40;;;;;;;0.33;79.33;96012.63;5130544;27;20054;-74
2021/11/30 05:16:07;;;;;;;3.85;2.28;;;;;;;0.36;78.77;96012.09;5130259;27;20043;-73
2021/11/30 05:18:34;;;;;;;4.40;2.10;;;;;;;0.35;78.94;96013.16;5130909;27;20802;-74
2021/11/30 05:21:00;;;;;;;4.20;2.47;;;;;;;0.35;78.81;96011.28;5130262;27;20050;-74
2021/11/30 05:23:29;;;;;;;3.97;2.47;;;;;;;0.35;78.70;96011.28;5130395;27;20429;-73
2021/11/30 05:25:59;;;;;;;3.15;2.03;;;;;;;0.36;78.09;96012.09;5129959;27;20131;-74
2021/11/30 05:28:28;;;;;;;4.75;1.90;;;;;;;0.38;78.07;95999.28;5130523;27;20055;-74
2021/11/30 05:30:55;;;;;;;4.30;2.22;;;;;;;0.42;77.78;95997.69;5129777;27;20047;-74
2021/11/30 05:33:21;;;;;;;2.78;1.77;;;;;;;0.42;77.13;96003.03;5130545;27;20487;-73
2021/11/30 05:35:48;;;;;;;5.25;2.65;;;;;;;0.39;77.12;96000.88;5130013;27;20051;-73
2021/11/30 05:38:14;;;;;;;5.05;2.00;;;;;;;0.37;76.53;96000.34;5129671;27;20047;-73
2021/11/30 05:40:42;;;;;;;3.58;2.17;;;;;;;0.38;76.79;95983.19;5130122;27;20058;-74
2021/11/30 05:43:11;;;;;;;4.15;2.00;;;;;;;0.35;76.56;95986.38;5129309;27;20071;-73
2021/11/30 05:45:37;;;;;;;4.22;2.33;;;;;;;0.34;76.52;95982.09;5130522;27;20417;-73
2021/11/30 05:48:04;;;;;;;7.90;2.13;;;;;;;0.34;75.97;95987.47;5130068;27;20195;-72
2021/11/30 05:50:31;;;;;;;3.83;2.00;;;;;;;0.33;76.11;95983.19;5130628;27;20058;-73
2021/11/30 05:52:59;;;;;;;6.43;2.03;;;;;;;0.32;76.28;95990.41;5128905;27;20150;-73
2021/11/30 05:55:26;;;;;;;4.50;2.10;;;;;;;0.31;75.82;95983.41;5129801;27;20066;-73
2021/11/30 05:57:52;;;;;;;6.03;2.40;;;;;;;0.33;75.64;95985.84;5129573;27;20050;-72
2021/11/30 06:00:21;;;;;;;6.15;2.30;;;;;;;0.31;75.32;95974.59;5129495;27;20043;-73
2021/11/30 06:03:02;;;;;;;4.88;1.73;;;;;;;0.31;75.39;95987.97;5129861;27;20051;-73
2021/11/30 06:05:30;;;;;;;5.07;2.13;;;;;;;0.30;75.56;95978.34;5121060;27;20794;-73
2021/11/30 06:07:58;;;;;;;4.70;1.95;;;;;;;0.27;75.39;95981.56;5129971;27;20062;-74
2021/11/30 06:10:24;;;;;;;3.88;1.98;;;;;;;0.28;75.42;96001.91;5128475;27;20051;-73
2021/11/30 06:12:51;;;;;;;4.28;1.88;;;;;;;0.29;74.53;95979.41;5115648;27;20051;-74
2021/11/30 06:15:20;;;;;;;4.93;2.05;;;;;;;0.30;74.77;95983.69;5108153;28;20051;-72
2021/11/30 06:17:47;;;;;;;4.63;2.22;;;;;;;0.28;74.49;95983.97;5109074;28;20066;-72
2021/11/30 06:20:15;;;;;;;4.68;2.15;;;;;;;0.32;74.76;95973.53;5108515;28;20067;-72
2021/11/30 06:22:41;;;;;;;6.68;1.98;;;;;;;0.35;74.56;95973.00;5109021;28;20058;-73
2021/11/30 06:25:09;;;;;;;5.60;2.55;;;;;;;0.34;75.08;95990.94;5108222;28;20054;-72
2021/11/30 06:27:36;;;;;;;5.13;2.28;;;;;;;0.33;74.59;95975.16;5108774;28;20058;-73
2021/11/30 06:30:04;;;;;;;4.90;2.67;;;;;;;0.36;74.23;95982.63;5108474;28;20052;-72
2021/11/30 06:32:32;;;;;;;4.28;2.35;;;;;;;0.35;74.45;95989.06;5108352;28;20051;-71
2021/11/30 06:34:58;;;;;;;4.30;2.17;;;;;;;0.33;74.41;95975.16;5109451;28;20047;-72
2021/11/30 06:37:25;;;;;;;4.05;2.45;;;;;;;0.33;73.83;95975.16;5107708;28;20048;-71
2021/11/30 06:39:52;;;;;;;5.70;2.55;;;;;;;0.36;73.91;95961.22;5113771;27;20481;-72
2021/11/30 06:42:20;;;;;;;4.82;2.33;;;;;;;0.37;73.91;95976.22;5110782;27;20047;-72
2021/11/30 06:44:47;;;;;;;7.47;2.35;;;;;;;0.32;73.88;95954.78;5108945;28;20505;-72
2021/11/30 06:47:15;;;;;;;4.43;2.65;;;;;;;0.30;73.45;95964.94;5107847;28;20051;-72
2021/11/30 06:49:43;;;;;;;6.75;2.70;;;;;;;0.31;73.93;95953.16;5108756;27;20052;-71
2021/11/30 06:52:10;;;;;;;4.03;2.20;;;;;;;0.29;73.58;95971.38;5108241;28;20052;-71
2021/11/30 06:54:42;;;;;;;4.40;2.40;;;;;;;0.34;73.71;95955.31;5108077;28;20486;-72
2021/11/30 06:57:09;;;;;;;4.70;2.65;;;;;;;0.32;73.71;95984.25;5111709;27;20059;-72
2021/11/30 06:59:35;;;;;;;4.38;2.38;;;;;;;0.34;73.57;95966.03;5124495;27;20046;-71
2021/11/30 07:02:02;;;;;;;5.72;2.17;;;;;;;0.35;73.23;95965.75;5128867;27;20463;-72
2021/11/30 07:04:31;;;;;;;2.95;1.95;;;;;;;0.34;72.80;95971.38;5127781;27;20055;-72
2021/11/30 07:07:05;;;;;;;4.05;2.35;;;;;;;0.37;73.30;95965.53;5128813;27;20051;-71
2021/11/30 07:09:37;;;;;;;6.10;2.97;;;;;;;0.37;72.84;95955.63;5127799;27;20701;-71
2021/11/30 07:12:10;;;;;;;3.38;2.05;;;;;;;0.36;73.00;95978.09;5127811;27;20042;-72
2021/11/30 07:14:37;;;;;;;6.45;2.67;;;;;;;0.40;73.49;95971.13;5128808;27;20051;-71
2021/11/30 07:17:04;;;;;;;5.47;2.28;;;;;;;0.42;73.23;95984.28;5127293;27;20047;-70
2021/11/30 07:19:32;;;;;;;6.22;2.40;;;;;;;0.44;73.53;95979.47;5128980;27;20061;-71
2021/11/30 07:22:00;;;;;;;8.32;3.00;;;;;;;0.44;73.57;95979.47;5127853;27;20047;-71
2021/11/30 07:24:27;;;;;;;6.93;2.78;;;;;;;0.46;73.12;95991.50;5128736;27;20054;-70
2021/11/30 07:26:53;;;;;;;4.80;2.28;;;;;;;0.48;73.04;95967.16;5127948;27;20055;-71
2021/11/30 07:29:20;;;;;;;4.82;2.28;;;;;;;0.45;72.83;95983.75;5125099;27;20043;-72
2021/11/30 07:31:46;;;;;;;7.13;2.40;;;;;;;0.45;73.19;95983.75;5128152;27;20426;-71
2021/11/30 07:34:13;;;;;;;4.18;2.55;;;;;;;0.45;73.03;95967.69;5127929;27;20054;-71
2021/11/30 07:36:39;;;;;;;5.15;2.33;;;;;;;0.45;72.92;95962.31;5128360;27;20057;-71
2021/11/30 07:39:07;;;;;;;4.07;2.58;;;;;;;0.44;73.12;95960.72;5127313;27;20055;-71
2021/11/30 07:41:35;;;;;;;6.13;2.33;;;;;;;0.47;72.45;95960.16;5128814;27;20059;-71
2021/11/30 07:44:03;;;;;;;5.38;2.33;;;;;;;0.49;71.42;95960.72;5127265;28;20043;-70
2021/11/30 07:46:29;;;;;;;6.18;2.78;;;;;;;0.44;71.96;95947.31;5128990;28;20074;-71
2021/11/30 07:48:56;;;;;;;4.38;2.30;;;;;;;0.46;72.75;95962.03;5127829;28;20054;-71
2021/11/30 07:51:22;;;;;;;4.57;2.13;;;;;;;0.45;73.35;95962.31;5127732;28;20047;-71
2021/11/30 07:53:50;;;;;;;5.40;2.50;;;;;;;0.37;73.35;95954.81;5125341;28;20043;-73
2021/11/30 07:56:18;;;;;;;4.90;2.47;;;;;;;0.28;74.79;95940.31;5122591;28;20096;-74
2021/11/30 07:58:44;;;;;;;3.50;2.42;;;;;;;0.16;74.78;95930.63;5127936;28;20050;-72
2021/11/30 08:01:12;;;;;;;6.88;2.80;;;;;;;0.15;75.85;95929.00;5127076;28;20051;-73
2021/11/30 08:03:39;;;;;;;5.55;2.53;;;;;;;0.17;75.42;95934.13;5128239;28;20051;-73
2021/11/30 08:06:05;;;;;;;5.53;2.80;;;;;;;0.17;75.36;95929.56;5126562;28;20425;-73
2021/11/30 08:08:32;;;;;;;4.82;2.25;;;;;;;0.21;74.59;95927.97;5128491;28;20058;-74
2021/11/30 08:10:58;;;;;;;3.38;2.08;;;;;;;0.20;73.97;95920.19;5127088;28;20112;-73
2021/11/30 08:13:26;;;;;;;4.55;2.45;;;;;;;0.21;74.63;95909.22;5127745;28;20055;-74
2021/11/30 08:15:53;;;;;;;9.60;2.70;;;;;;;0.21;74.80;95903.06;5128275;28;20047;-74
2021/11/30 08:18:19;;;;;;;3.90;2.25;;;;;;;0.20;75.43;95912.16;5127510;28;20043;-72
2021/11/30 08:20:46;;;;;;;5.32;2.63;;;;;;;0.17;75.77;95891.28;5127725;27;20047;-71
2021/11/30 08:23:14;;;;;;;7.82;2.65;;;;;;;0.09;76.28;95905.97;5130860;27;20529;-70
2021/11/30 08:25:41;;;;;;;6.18;2.50;;;;;;;0.06;76.38;95887.75;5128807;27;20071;-72
2021/11/30 08:28:08;;;;;;;9.75;2.97;;;;;;;0.06;77.17;95885.09;5129860;27;20061;-71
2021/11/30 08:30:36;;;;;;;6.60;2.92;;;;;;;0.09;78.00;95887.22;5132094;27;20073;-72
2021/11/30 08:33:04;;;;;;;5.97;2.53;;;;;;;0.14;77.99;95887.22;5130484;27;20043;-72
2021/11/30 08:35:30;;;;;;;3.25;2.33;;;;;;;0.15;77.18;95894.19;5132240;27;20067;-73
2021/11/30 08:37:57;;;;;;;5.88;2.50;;;;;;;0.17;77.63;95891.28;5130958;27;20054;-73
2021/11/30 08:40:23;;;;;;;6.85;2.55;;;;;;;0.16;77.80;95898.50;5131166;27;20459;-72
2021/11/30 08:42:50;;;;;;;9.63;2.30;;;;;;;0.15;77.49;95886.16;5131185;27;20055;-72
2021/11/30 08:45:16;;;;;;;6.20;2.50;;;;;;;0.17;77.43;95881.38;5130741;27;20043;-72
2021/11/30 08:47:44;;;;;;;7.15;2.70;;;;;;;0.22;77.66;95897.44;5131630;27;20047;-72
2021/11/30 08:50:14;;;;;;;8.90;2.47;;;;;;;0.16;76.91;95877.09;5130379;27;20569;-72
2021/11/30 08:52:41;;;;;;;4.30;2.78;;;;;;;0.11;77.90;95879.75;5131840;27;20049;-71
2021/11/30 08:55:09;;;;;;;6.53;2.67;;;;;;;0.07;77.96;95875.97;5129095;27;20054;-73
2021/11/30 08:57:36;;;;;;;5.55;2.90;;;;;;;0.01;79.39;95877.03;5132075;27;20051;-73
2021/11/30 09:00:08;;;;;;;5.75;2.70;;;;;;;0.01;79.58;95865.53;5130413;27;20043;-74
2021/11/30 09:02:35;;;;;;;7.70;2.83;;;;;;;-0.08;80.25;95874.03;5131595;27;20441;-73
2021/11/30 09:05:05;;;;;;;6.70;2.65;;;;;;;-0.21;81.16;95868.34;5130125;27;20099;-72
2021/11/30 09:07:32;;;;;;;5.70;3.00;;;;;;;-0.19;81.92;95855.53;5130917;27;20043;-73
2021/11/30 09:09:58;;;;;;;7.63;3.30;;;;;;;-0.25;82.74;95852.03;5130785;27;20434;-74
2021/11/30 09:12:26;;;;;;;7.15;3.13;;;;;;;-0.35;83.80;95839.44;5129996;27;20454;-74
2021/11/30 09:14:53;;;;;;;5.05;3.08;;;;;;;-0.43;84.64;95839.91;5130959;27;20070;-74
2021/11/30 09:17:20;;;;;;;8.00;3.13;;;;;;;-0.47;85.67;95833.50;5129473;27;20043;-75
2021/11/30 09:19:47;;;;;;;6.72;3.25;;;;;;;-0.52;86.68;95836.16;5131407;27;20074;-74
2021/11/30 09:22:15;;;;;;;8.38;3.40;;;;;;;-0.51;87.08;95843.09;5129814;27;20043;-74
2021/11/30 09:24:41;;;;;;;10.45;3.83;;;;;;;-0.43;86.82;95839.09;5130898;27;20078;-74
2021/11/30 09:27:08;;;;;;;6.72;3.40;;;;;;;-0.41;86.42;95837.81;5129403;27;20051;-73
2021/11/30 09:29:34;;;;;;;8.50;2.92;;;;;;;-0.36;86.70;95824.44;5130853;27;20058;-73
2021/11/30 09:32:01;;;;;;;6.72;3.40;;;;;;;-0.48;86.20;95815.81;5129931;27;20051;-73
2021/11/30 09:34:27;;;;;;;5.78;2.75;;;;;;;-0.50;87.38;95814.47;5130314;27;20043;-73
2021/11/30 09:36:55;;;;;;;5.22;3.28;;;;;;;-0.64;87.71;95806.91;5130648;27;20498;-74
2021/11/30 09:39:23;;;;;;;6.00;3.08;;;;;;;-0.62;88.45;95804.00;5129755;27;22818;-74
2021/11/30 09:41:50;;;;;;;15.50;3.78;;;;;;;-0.67;88.49;95791.41;5130638;27;20385;-72
2021/11/30 09:44:17;;;;;;;5.43;2.92;;;;;;;-0.66;88.30;95781.53;5129439;27;20043;-72
2021/11/30 09:46:44;;;;;;;7.47;3.03;;;;;;;-0.67;88.93;95779.91;5130710;27;20051;-73
2021/11/30 09:49:11;;;;;;;8.82;3.20;;;;;;;-0.65;88.90;95783.94;5129319;27;20055;-72
2021/11/30 09:51:38;;;;;;;4.72;2.72;;;;;;;-0.62;88.70;95782.63;5130350;27;20054;-74
2021/11/30 09:54:05;;;;;;;7.50;2.88;;;;;;;-0.58;88.78;95778.34;5129423;27;20063;-73
2021/11/30 09:56:33;;;;;;;5.30;2.63;;;;;;;-0.57;87.62;95763.91;5128942;27;20738;-73
2021/11/30 09:59:00;;;;;;;4.80;2.33;;;;;;;-0.51;86.96;95778.09;5130111;27;20115;-72
2021/11/30 10:01:26;;;;;;;4.40;2.10;;;;;;;-0.47;86.42;95766.63;5129188;27;20051;-73
2021/11/30 10:03:53;;;;;;;2.72;1.70;;;;;;;-0.47;85.64;95766.63;5130332;27;20043;-73
2021/11/30 10:06:20;;;;;;;5.07;1.58;;;;;;;-0.47;85.52;95731.88;5128802;27;20077;-74
2021/11/30 10:08:49;;;;;;;5.13;1.50;;;;;;;-0.48;84.67;95740.94;5130573;27;20054;-74
2021/11/30 10:11:33;;;;;;;4.07;1.55;;;;;;;-0.38;84.47;95746.31;5128444;27;20057;-74
2021/11/30 10:14:14;;;;;;;;;;;;;;;-0.40;84.06;95743.09;5130609;27;20074;-73
2021/11/30 10:16:42;;;;;;;1.80;1.10;;;;;;;-0.45;84.63;95745.75;5129334;27;19976;-73
2021/11/30 10:19:09;;;;;;;3.25;1.20;;;;;;;-0.49;84.57;95731.31;5129089;27;20058;-72
2021/11/30 10:21:36;;;;;;;2.85;1.10;;;;;;;-0.47;84.96;95725.69;5129574;27;20047;-74
2021/11/30 10:24:05;;;;;;;2.15;1.13;;;;;;;-0.51;84.45;95720.06;5128728;27;20047;-72
2021/11/30 10:26:35;;;;;;;1.75;1.15;;;;;;;-0.51;85.16;95714.72;5128877;27;20047;-73
2021/11/30 10:29:05;;;;;;;1.73;1.02;;;;;;;-0.48;84.80;95703.47;5128938;27;20043;-73
2021/11/30 10:31:36;;;;;;;3.75;1.23;;;;;;;-0.46;84.67;95696.00;5129695;27;20051;-73
2021/11/30 10:34:12;;;;;;;2.13;1.20;;;;;;;-0.43;84.58;95708.03;5128510;27;20053;-74
2021/11/30 10:36:47;;;;;;;3.25;1.23;;;;;;;-0.41;84.91;95698.72;5129488;27;20055;-73
2021/11/30 10:39:18;;;;;;;2.38;1.27;;;;;;;-0.41;84.38;95704.06;5128594;27;20065;-74
2021/11/30 10:41:47;;;;;;;3.50;0.90;;;;;;;-0.39;84.80;95715.28;5128990;27;20051;-74
2021/11/30 10:44:13;;;;;;;2.67;1.33;;;;;;;-0.41;85.05;95696.03;5128517;27;20054;-74
2021/11/30 10:46:41;;;;;;;1.80;1.00;;;;;;;-0.36;84.91;95696.03;5128660;27;20057;-73
2021/11/30 10:49:10;;;;;;;3.30;1.02;;;;;;;-0.36;84.84;95680.00;5129339;27;20823;-73
2021/11/30 10:51:50;;;;;;;1.98;1.15;;;;;;;-0.36;84.98;95685.34;5128678;27;20192;-73
2021/11/30 10:54:16;;;;;;;3.03;1.02;;;;;;;-0.32;85.07;95680.25;5129108;27;20070;-72
2021/11/30 10:56:43;;;;;;;3.60;1.30;;;;;;;-0.30;84.71;95678.94;5127741;27;20493;-73
2021/11/30 10:59:20;;;;;;;2.85;1.20;;;;;;;-0.23;84.79;95667.16;5128412;27;20144;-74
2021/11/30 11:01:48;;;;;;;2.80;1.13;;;;;;;-0.27;84.93;95659.66;5129066;27;20055;-74
2021/11/30 11:04:15;;;;;;;2.95;1.35;;;;;;;-0.31;85.50;95660.47;5127876;27;20092;-74
2021/11/30 11:07:05;;;;;;;2.80;1.52;;;;;;;-0.31;85.54;95658.59;5129416;27;20047;-74
2021/11/30 11:09:38;;;;;;;2.90;1.00;;;;;;;-0.31;86.31;95666.63;5128087;27;20750;-73
2021/11/30 11:12:05;;;;;;;3.45;1.10;;;;;;;-0.30;85.99;95651.38;5128644;27;20067;-74
2021/11/30 11:14:44;;;;;;;1.90;0.93;;;;;;;-0.25;86.77;95659.41;5128324;27;20516;-73
2021/11/30 11:17:27;;;;;;;2.75;1.40;;;;;;;-0.27;86.52;95648.94;5128603;27;20058;-75
2021/11/30 11:19:53;;;;;;;4.17;1.30;;;;;;;-0.22;87.49;95639.31;5129249;27;20054;-74
2021/11/30 11:22:22;;;;;;;3.03;0.80;;;;;;;-0.23;86.89;95646.56;5127564;27;20410;-73
2021/11/30 11:24:50;;;;;;;2.63;0.95;;;;;;;-0.18;86.92;95643.88;5128402;27;20047;-73
2021/11/30 11:27:18;;;;;;;2.08;0.90;;;;;;;-0.10;87.04;95619.28;5106771;28;20054;-73
2021/11/30 11:29:45;;;;;;;2.90;0.80;;;;;;;-0.06;85.90;95628.34;5108459;28;20059;-74
2021/11/30 11:32:13;;;;;;;1.52;0.63;;;;;;;-0.01;85.60;95639.06;5106797;28;20060;-74
2021/11/30 11:34:40;;;;;;;1.33;0.60;;;;;;;0.03;84.28;95617.91;5108007;28;20051;-74
2021/11/30 11:37:09;;;;;;;2.20;0.60;;;;;;;0.08;83.33;95630.50;5107248;28;20052;-73
2021/11/30 11:39:37;;;;;;;4.25;0.77;;;;;;;0.12;83.60;95632.38;5107465;28;20100;-73
2021/11/30 11:42:06;;;;;;;1.27;0.43;;;;;;;0.16;83.77;95632.66;5107421;28;20517;-72
2021/11/30 11:44:34;;;;;;;2.95;0.70;;;;;;;0.19;83.28;95624.84;5107223;28;20051;-74
2021/11/30 11:47:03;;;;;;;1.38;0.70;;;;;;;0.20;83.21;95618.41;5107973;28;20506;-73
2021/11/30 11:49:36;;;;;;;1.63;0.80;;;;;;;0.23;83.05;95611.75;5106848;28;20186;-74